Time;durP1;ratioP1;P1;durP2;ratioP2;P2;SDS_P1;SDS_P2;PMS_P1;PMS_P2;Temp;Humidity;BMP_temperature;BMP_pressure;BME280_temperature;BME280_humidity;BME280_pressure;Samples;Min_cycle;Max_cycle;Signal;HPM_P1;HPM_P2
2022/08/04 00:02:25;;;;;;;0.50;0.30;;;23.90;99.90;;;;;;5042142;28;20488;-85
2022/08/04 00:04:55;;;;;;;0.50;0.30;;;23.90;99.90;;;;;;5041409;28;20462;-84
2022/08/04 00:07:31;;;;;;;0.50;0.30;;;23.90;99.90;;;;;;5041151;28;20462;-84
2022/08/04 00:10:01;;;;;;;0.50;0.30;;;23.90;99.90;;;;;;5041630;28;20521;-86
2022/08/04 00:12:32;;;;;;;0.50;0.30;;;23.90;99.90;;;;;;5040778;28;20504;-84
2022/08/04 00:15:00;;;;;;;0.50;0.30;;;23.90;99.90;;;;;;5041562;28;20433;-84
2022/08/04 00:17:31;;;;;;;0.50;0.30;;;23.90;99.90;;;;;;5042268;28;20450;-81
2022/08/04 00:20:01;;;;;;;0.50;0.30;;;23.80;99.90;;;;;;5042974;28;20494;-84
2022/08/04 00:22:30;;;;;;;0.50;0.30;;;23.90;99.90;;;;;;5043920;28;20485;-84
2022/08/04 00:25:02;;;;;;;0.50;0.40;;;23.80;99.90;;;;;;5043735;28;20521;-84
2022/08/04 00:27:29;;;;;;;0.50;0.40;;;23.80;99.90;;;;;;5042991;28;20454;-86
2022/08/04 00:29:57;;;;;;;0.50;0.30;;;23.80;99.90;;;;;;5043014;28;20462;-84
2022/08/04 00:32:25;;;;;;;0.50;0.30;;;23.70;99.90;;;;;;5042743;28;20513;-86
2022/08/04 00:34:54;;;;;;;0.50;0.30;;;23.70;99.90;;;;;;5043160;28;20433;-86
2022/08/04 00:37:22;;;;;;;0.50;0.30;;;23.70;99.90;;;;;;5043052;28;20481;-83
2022/08/04 00:39:49;;;;;;;0.50;0.30;;;23.70;99.90;;;;;;5040683;28;20445;-83
2022/08/04 00:42:34;;;;;;;0.50;0.30;;;23.70;99.90;;;;;;5041626;28;20485;-85
2022/08/04 00:45:34;;;;;;;0.50;0.30;;;23.70;99.90;;;;;;5042391;28;20448;-85
2022/08/04 00:48:10;;;;;;;0.50;0.30;;;23.60;99.90;;;;;;4995824;28;20497;-83
2022/08/04 00:50:45;;;;;;;0.50;0.30;;;23.60;99.90;;;;;;5043473;28;20438;-84
2022/08/04 00:53:19;;;;;;;0.50;0.30;;;23.60;99.90;;;;;;5042132;28;20551;-84
2022/08/04 00:56:26;;;;;;;0.50;0.30;;;23.50;99.90;;;;;;5042343;28;20434;-84
2022/08/04 00:59:04;;;;;;;0.50;0.30;;;23.50;99.90;;;;;;5032509;28;20503;-86
2022/08/04 01:01:51;;;;;;;0.50;0.30;;;23.40;99.90;;;;;;5042896;28;20654;-84
2022/08/04 01:04:29;;;;;;;0.50;0.30;;;23.40;99.90;;;;;;5041888;28;20466;-85
2022/08/04 01:07:15;;;;;;;0.50;0.30;;;23.30;99.90;;;;;;5043145;28;20504;-84
2022/08/04 01:09:52;;;;;;;0.50;0.30;;;23.30;99.90;;;;;;5043303;28;20438;-86
2022/08/04 01:12:43;;;;;;;0.50;0.30;;;23.30;99.90;;;;;;5042368;28;20508;-83
2022/08/04 01:15:18;;;;;;;0.50;0.30;;;23.30;99.90;;;;;;5040369;28;20469;-84
2022/08/04 01:17:58;;;;;;;0.50;0.40;;;23.20;99.90;;;;;;5040346;28;20867;-83
2022/08/04 01:20:26;;;;;;;0.50;0.40;;;23.20;99.90;;;;;;5041255;28;20865;-85
2022/08/04 01:23:35;;;;;;;0.50;0.30;;;23.10;99.90;;;;;;5040491;28;20511;-84
2022/08/04 01:26:43;;;;;;;0.50;0.30;;;23.10;99.90;;;;;;5044972;28;20509;-83
2022/08/04 01:29:12;;;;;;;0.50;0.30;;;23.00;99.90;;;;;;5045784;28;20434;-84
2022/08/04 01:32:00;;;;;;;0.50;0.40;;;23.00;99.90;;;;;;5044520;28;20482;-85
2022/08/04 01:34:33;;;;;;;0.50;0.30;;;22.90;99.90;;;;;;5045530;28;20468;-83
2022/08/04 01:37:08;;;;;;;0.50;0.30;;;22.90;99.90;;;;;;5044914;28;20481;-84
2022/08/04 01:39:41;;;;;;;0.50;0.30;;;22.80;99.90;;;;;;5044586;28;20469;-82
2022/08/04 01:42:10;;;;;;;0.50;0.30;;;22.80;99.90;;;;;;5043843;28;20434;-84
2022/08/04 01:44:40;;;;;;;0.50;0.30;;;22.80;99.90;;;;;;5044884;28;20468;-82
2022/08/04 01:47:09;;;;;;;0.50;0.30;;;22.70;99.90;;;;;;5043697;28;20530;-84
2022/08/04 01:49:37;;;;;;;0.50;0.40;;;22.70;99.90;;;;;;5044418;28;20449;-86
2022/08/04 01:52:08;;;;;;;0.50;0.30;;;22.70;99.90;;;;;;5043968;28;20518;-85
2022/08/04 01:54:39;;;;;;;0.50;0.30;;;22.70;99.90;;;;;;5044119;28;20437;-83
2022/08/04 01:57:06;;;;;;;0.50;0.30;;;22.60;99.90;;;;;;5044041;28;20465;-84
2022/08/04 01:59:35;;;;;;;0.50;0.40;;;22.60;99.90;;;;;;5043722;28;20477;-84
2022/08/04 02:02:04;;;;;;;0.50;0.33;;;22.50;99.90;;;;;;5043770;28;20458;-84
2022/08/04 02:04:31;;;;;;;0.50;0.30;;;22.50;99.90;;;;;;5044129;28;20448;-85
2022/08/04 02:07:07;;;;;;;0.50;0.30;;;22.40;99.90;;;;;;5042859;28;21149;-83
2022/08/04 02:09:41;;;;;;;0.50;0.30;;;22.30;99.90;;;;;;5044434;28;20426;-84
2022/08/04 02:12:17;;;;;;;0.50;0.40;;;22.30;99.90;;;;;;5043225;28;20465;-84
2022/08/04 02:14:52;;;;;;;0.50;0.30;;;22.20;99.90;;;;;;5044079;28;20430;-84
2022/08/04 02:17:28;;;;;;;0.50;0.30;;;22.20;99.90;;;;;;5042708;28;20488;-83
2022/08/04 02:20:07;;;;;;;0.50;0.30;;;22.10;99.90;;;;;;5042864;28;20418;-83
2022/08/04 02:22:39;;;;;;;0.50;0.30;;;22.10;99.90;;;;;;5043359;28;20609;-82
2022/08/04 02:25:08;;;;;;;0.50;0.30;;;22.10;99.90;;;;;;5043809;28;20431;-82
2022/08/04 02:27:55;;;;;;;0.50;0.30;;;22.00;99.90;;;;;;5043507;28;20517;-84
2022/08/04 02:30:28;;;;;;;0.50;0.30;;;21.90;99.90;;;;;;5043719;28;20787;-82
2022/08/04 02:33:01;;;;;;;0.50;0.30;;;21.90;99.90;;;;;;5042163;28;20994;-84
2022/08/04 02:35:35;;;;;;;0.50;0.30;;;21.80;99.90;;;;;;5042377;28;20422;-84
2022/08/04 02:38:12;;;;;;;0.50;0.30;;;21.80;99.90;;;;;;5043109;28;20545;-84
2022/08/04 02:40:41;;;;;;;0.50;0.30;;;21.80;99.90;;;;;;5044051;28;20440;-82
2022/08/04 02:43:10;;;;;;;0.50;0.30;;;21.80;99.90;;;;;;5042108;28;20807;-83
2022/08/04 02:45:37;;;;;;;0.50;0.30;;;21.70;99.90;;;;;;5042126;28;20963;-83
2022/08/04 02:48:10;;;;;;;0.50;0.30;;;21.70;99.90;;;;;;5043125;28;20472;-85
2022/08/04 02:50:39;;;;;;;0.50;0.30;;;21.60;99.90;;;;;;5044745;28;20804;-84
2022/08/04 02:53:09;;;;;;;0.50;0.30;;;21.60;99.90;;;;;;5044579;28;20497;-83
2022/08/04 02:55:37;;;;;;;0.50;0.37;;;21.50;99.90;;;;;;5044197;28;20434;-83
2022/08/04 02:58:05;;;;;;;0.63;0.60;;;21.50;99.90;;;;;;5044719;28;20494;-83
2022/08/04 03:00:32;;;;;;;0.50;0.40;;;21.60;99.90;;;;;;5044951;28;20530;-82
2022/08/04 03:03:15;;;;;;;0.50;0.30;;;21.60;99.90;;;;;;5045030;28;20434;-86
2022/08/04 03:05:58;;;;;;;8.80;8.00;;;21.60;99.90;;;;;;5046148;28;20445;-86
2022/08/04 03:08:55;;;;;;;0.50;0.30;;;21.60;99.90;;;;;;5046200;28;20493;-85
2022/08/04 03:11:51;;;;;;;0.50;0.30;;;21.50;99.90;;;;;;5044910;28;20465;-84
2022/08/04 03:14:58;;;;;;;0.50;0.30;;;21.50;99.90;;;;;;5046042;28;20415;-85
2022/08/04 03:17:57;;;;;;;0.50;0.30;;;21.40;99.90;;;;;;5045938;28;20489;-85
2022/08/04 03:21:20;;;;;;;0.50;0.30;;;21.30;99.90;;;;;;5046371;28;20448;-86
2022/08/04 03:24:28;;;;;;;0.50;0.30;;;21.20;99.90;;;;;;5046837;28;20450;-83
2022/08/04 03:27:11;;;;;;;0.50;0.30;;;21.20;99.90;;;;;;5029929;28;20518;-84
2022/08/04 03:30:14;;;;;;;0.50;0.30;;;21.10;99.90;;;;;;5045198;28;20430;-84
2022/08/04 03:33:14;;;;;;;0.50;0.30;;;21.10;99.90;;;;;;5042092;28;20473;-84
2022/08/04 03:36:26;;;;;;;0.50;0.30;;;21.00;99.90;;;;;;5045031;28;20442;-83
2022/08/04 03:39:20;;;;;;;0.50;0.30;;;21.00;99.90;;;;;;5040135;28;20505;-84
2022/08/04 03:42:10;;;;;;;0.50;0.30;;;20.90;99.90;;;;;;5035695;28;20522;-82
2022/08/04 03:45:24;;;;;;;0.50;0.30;;;20.90;99.90;;;;;;5037000;28;20502;-82
2022/08/04 03:48:18;;;;;;;0.50;0.40;;;20.80;99.90;;;;;;4972943;28;20503;-85
2022/08/04 03:54:04;;;;;;;0.50;0.37;;;20.90;99.90;;;;;;5039950;28;20511;-85
2022/08/04 03:56:56;;;;;;;0.50;0.30;;;20.90;99.90;;;;;;5040917;28;20882;-85
2022/08/04 03:59:56;;;;;;;0.50;0.30;;;20.80;99.90;;;;;;5037147;28;20761;-83
2022/08/04 04:02:55;;;;;;;0.50;0.33;;;20.80;99.90;;;;;;5034126;28;20520;-83
2022/08/04 04:05:55;;;;;;;0.50;0.30;;;20.70;99.90;;;;;;5034347;28;20533;-83
2022/08/04 04:08:47;;;;;;;0.50;0.30;;;20.70;99.90;;;;;;5034770;28;20501;-82
2022/08/04 04:11:43;;;;;;;0.50;0.30;;;20.60;99.90;;;;;;5034032;28;20928;-82
2022/08/04 04:14:30;;;;;;;0.50;0.30;;;20.60;99.90;;;;;;5025506;28;20589;-82
2022/08/04 04:17:41;;;;;;;0.50;0.30;;;20.60;99.90;;;;;;5033577;28;20548;-81
2022/08/04 04:20:32;;;;;;;0.50;0.30;;;20.60;99.90;;;;;;5033451;28;20469;-83
2022/08/04 04:23:11;;;;;;;0.50;0.30;;;20.60;99.90;;;;;;5033152;28;20514;-82
2022/08/04 04:25:55;;;;;;;0.50;0.40;;;20.60;99.90;;;;;;5033790;28;20480;-83
2022/08/04 04:28:44;;;;;;;0.50;0.30;;;20.60;99.90;;;;;;5033967;28;21099;-81
2022/08/04 04:31:33;;;;;;;0.50;0.30;;;20.60;99.90;;;;;;5033191;28;20478;-82
2022/08/04 04:34:09;;;;;;;0.50;0.30;;;20.60;99.90;;;;;;5034545;28;20568;-81
2022/08/04 04:36:45;;;;;;;0.50;0.30;;;20.70;99.90;;;;;;5036474;28;20441;-84
2022/08/04 04:39:20;;;;;;;0.50;0.30;;;20.80;99.90;;;;;;5035350;28;20441;-82
2022/08/04 04:42:07;;;;;;;0.50;0.30;;;20.80;99.90;;;;;;5032956;28;20880;-82
2022/08/04 04:44:52;;;;;;;0.50;0.30;;;20.80;99.90;;;;;;5034113;28;20516;-82
2022/08/04 04:47:29;;;;;;;0.50;0.30;;;20.90;99.90;;;;;;5033900;28;20470;-83
2022/08/04 04:50:04;;;;;;;0.50;0.30;;;21.00;99.90;;;;;;5033508;28;20469;-87
2022/08/04 04:52:38;;;;;;;0.50;0.30;;;21.10;99.90;;;;;;5033210;28;20487;-85
2022/08/04 04:55:14;;;;;;;0.50;0.30;;;21.10;99.90;;;;;;5032974;28;20544;-84
2022/08/04 04:57:42;;;;;;;0.50;0.40;;;21.20;99.90;;;;;;5033177;28;20462;-83
2022/08/04 05:00:12;;;;;;;0.50;0.30;;;21.30;99.90;;;;;;5032791;28;20473;-83
2022/08/04 05:03:10;;;;;;;0.50;0.30;;;21.40;99.90;;;;;;5033920;28;20925;-85
2022/08/04 05:05:56;;;;;;;0.50;0.40;;;21.50;99.90;;;;;;5036596;28;20525;-84
2022/08/04 05:08:49;;;;;;;0.50;0.30;;;21.60;99.90;;;;;;5034016;28;21019;-84
2022/08/04 05:11:45;;;;;;;0.50;0.30;;;21.70;99.90;;;;;;5034198;28;20492;-80
2022/08/04 05:14:19;;;;;;;0.50;0.40;;;21.70;99.90;;;;;;5034440;28;21059;-84
2022/08/04 05:16:49;;;;;;;0.50;0.30;;;21.80;99.90;;;;;;5034601;28;20521;-85
2022/08/04 05:19:25;;;;;;;0.50;0.40;;;21.90;99.90;;;;;;5034797;28;20592;-84
2022/08/04 05:22:00;;;;;;;1.40;1.30;;;21.90;99.90;;;;;;5034946;28;20528;-84
2022/08/04 05:24:28;;;;;;;0.50;0.30;;;22.10;99.90;;;;;;5034807;28;20477;-82
2022/08/04 05:27:01;;;;;;;0.50;0.30;;;22.20;99.90;;;;;;5034106;28;20899;-82
2022/08/04 05:29:31;;;;;;;1.33;1.23;;;22.30;99.90;;;;;;5034221;28;20465;-81
2022/08/04 05:32:02;;;;;;;0.50;0.30;;;22.40;99.90;;;;;;5034715;28;20528;-83
2022/08/04 05:34:39;;;;;;;3.50;2.00;;;22.50;99.90;;;;;;5034867;28;20494;-84
2022/08/04 05:37:10;;;;;;;0.50;0.30;;;22.60;99.90;;;;;;5034416;28;20492;-82
2022/08/04 05:39:44;;;;;;;0.50;0.30;;;22.70;99.90;;;;;;5033627;28;20481;-84
2022/08/04 05:42:12;;;;;;;0.50;0.40;;;22.80;99.90;;;;;;5033154;28;20438;-86
2022/08/04 05:44:40;;;;;;;0.50;0.30;;;22.90;99.90;;;;;;5033336;28;20488;-82
2022/08/04 05:47:10;;;;;;;0.50;0.30;;;23.00;99.90;;;;;;5035415;28;20485;-83
2022/08/04 05:49:41;;;;;;;0.50;0.30;;;23.20;99.90;;;;;;5037199;28;20474;-84
2022/08/04 05:52:10;;;;;;;0.50;0.30;;;23.40;99.90;;;;;;5035814;28;20438;-82
2022/08/04 05:54:39;;;;;;;0.50;0.33;;;23.60;99.90;;;;;;5033666;28;20565;-82
2022/08/04 05:57:07;;;;;;;0.50;0.30;;;23.80;99.90;;;;;;5033334;28;20545;-80
2022/08/04 05:59:38;;;;;;;0.50;0.30;;;24.00;99.90;;;;;;5033803;28;20478;-82
2022/08/04 06:02:07;;;;;;;0.50;0.30;;;24.10;99.90;;;;;;5033222;28;20882;-82
2022/08/04 06:04:38;;;;;;;0.50;0.30;;;24.30;99.90;;;;;;5032518;28;20513;-81
2022/08/04 06:07:06;;;;;;;0.50;0.30;;;24.60;99.90;;;;;;5033197;28;20557;-83
2022/08/04 06:09:34;;;;;;;0.50;0.30;;;25.20;99.90;;;;;;5033341;28;20878;-80
2022/08/04 06:12:04;;;;;;;0.50;0.30;;;26.40;99.90;;;;;;5035260;28;20549;-82
2022/08/04 06:14:35;;;;;;;0.50;0.30;;;27.70;99.90;;;;;;5036747;28;21154;-81
2022/08/04 06:17:06;;;;;;;0.50;0.30;;;29.40;99.90;;;;;;5036605;28;20466;-80
2022/08/04 06:19:36;;;;;;;0.50;0.30;;;31.00;99.90;;;;;;5036493;28;20426;-80
2022/08/04 06:22:06;;;;;;;0.50;0.30;;;32.30;98.70;;;;;;5036630;28;20452;-81
2022/08/04 06:24:37;;;;;;;0.50;0.30;;;32.90;93.40;;;;;;5036608;28;20469;-81
2022/08/04 06:27:05;;;;;;;0.47;0.30;;;33.70;89.40;;;;;;5035899;28;20566;-80
2022/08/04 06:29:35;;;;;;;0.50;0.30;;;34.30;81.60;;;;;;5036034;28;20442;-79
2022/08/04 06:32:12;;;;;;;0.50;0.30;;;34.20;79.70;;;;;;5036162;28;20537;-82
2022/08/04 06:34:40;;;;;;;0.50;0.30;;;34.30;78.00;;;;;;5036633;28;20835;-79
2022/08/04 06:37:09;;;;;;;0.50;0.30;;;34.30;76.20;;;;;;5036616;28;20487;-81
2022/08/04 06:39:36;;;;;;;0.50;0.30;;;34.40;75.80;;;;;;5036637;28;20545;-81
2022/08/04 06:42:05;;;;;;;0.50;0.30;;;35.40;74.40;;;;;;5036533;28;20474;-79
2022/08/04 06:44:33;;;;;;;1.43;0.60;;;36.60;71.70;;;;;;5037145;28;20554;-81
2022/08/04 06:47:01;;;;;;;0.50;0.30;;;37.90;65.10;;;;;;5036302;28;20498;-82
2022/08/04 06:49:30;;;;;;;0.50;0.30;;;38.60;63.30;;;;;;5036712;28;20430;-80
2022/08/04 06:51:58;;;;;;;0.43;0.30;;;39.10;59.70;;;;;;5036152;28;20990;-81
2022/08/04 06:54:26;;;;;;;0.40;0.30;;;39.50;58.40;;;;;;5037099;28;20556;-82
2022/08/04 06:56:55;;;;;;;0.40;0.30;;;39.30;57.00;;;;;;5036397;28;20496;-80
2022/08/04 06:59:22;;;;;;;0.40;0.30;;;39.50;56.50;;;;;;5037654;28;20866;-83
2022/08/04 07:01:51;;;;;;;0.47;0.30;;;40.30;54.30;;;;;;5036613;28;20853;-81
2022/08/04 07:04:18;;;;;;;0.40;0.30;;;41.10;53.60;;;;;;5037577;28;20871;-83
2022/08/04 07:06:45;;;;;;;0.40;0.30;;;42.00;52.40;;;;;;5037262;28;20453;-82
2022/08/04 07:09:12;;;;;;;0.40;0.30;;;42.40;49.70;;;;;;5037291;28;20532;-82
2022/08/04 07:11:41;;;;;;;0.40;0.30;;;42.20;49.50;;;;;;5036034;28;20545;-82
2022/08/04 07:14:08;;;;;;;0.40;0.30;;;42.00;50.20;;;;;;5035338;28;20474;-81
2022/08/04 07:16:36;;;;;;;0.40;0.30;;;42.00;48.80;;;;;;5037123;28;20542;-83
2022/08/04 07:19:02;;;;;;;0.40;0.40;;;42.10;49.10;;;;;;5038989;28;20434;-80
2022/08/04 07:21:30;;;;;;;0.80;0.67;;;41.80;48.70;;;;;;5035741;28;20947;-84
2022/08/04 07:23:57;;;;;;;0.40;0.30;;;42.20;49.20;;;;;;5037602;28;20449;-82
2022/08/04 07:26:28;;;;;;;0.40;0.30;;;42.70;48.00;;;;;;5038331;28;20525;-81
2022/08/04 07:28:58;;;;;;;0.40;0.30;;;42.70;47.70;;;;;;5038445;28;20857;-81
2022/08/04 07:31:26;;;;;;;0.50;0.40;;;42.70;47.50;;;;;;5037630;28;20444;-79
2022/08/04 07:33:55;;;;;;;0.40;0.30;;;42.30;47.20;;;;;;5037629;28;20474;-82
2022/08/04 07:36:22;;;;;;;0.40;0.30;;;41.00;48.40;;;;;;5038057;28;20865;-80
2022/08/04 07:38:49;;;;;;;0.40;0.30;;;40.70;49.90;;;;;;5038252;28;20902;-81
2022/08/04 07:41:21;;;;;;;0.40;0.30;;;41.10;49.70;;;;;;5038401;28;20438;-83
2022/08/04 07:43:48;;;;;;;0.50;0.40;;;41.30;50.10;;;;;;5040020;28;20438;-81
2022/08/04 07:46:17;;;;;;;0.50;0.40;;;41.70;48.50;;;;;;5037866;28;20533;-80
2022/08/04 07:48:44;;;;;;;0.70;0.50;;;40.50;48.90;;;;;;5033555;28;20528;-79
2022/08/04 07:51:11;;;;;;;0.40;0.30;;;39.80;50.40;;;;;;5034616;28;20438;-79
2022/08/04 07:53:39;;;;;;;0.40;0.30;;;39.90;51.70;;;;;;5034136;28;20461;-78
2022/08/04 07:56:06;;;;;;;0.40;0.30;;;39.70;51.60;;;;;;5033850;28;20433;-79
2022/08/04 07:58:33;;;;;;;1.43;1.33;;;39.70;50.70;;;;;;5033621;28;20458;-77
2022/08/04 08:01:00;;;;;;;0.40;0.30;;;39.40;50.80;;;;;;5033536;28;20477;-80
2022/08/04 08:03:29;;;;;;;0.40;0.30;;;39.60;51.90;;;;;;5032831;28;20521;-80
2022/08/04 08:05:56;;;;;;;1.00;0.87;;;40.40;51.20;;;;;;5033709;28;20532;-79
2022/08/04 08:08:23;;;;;;;0.40;0.30;;;40.60;49.40;;;;;;5034226;28;20497;-80
2022/08/04 08:10:50;;;;;;;0.40;0.30;;;40.50;49.80;;;;;;5034481;28;20474;-79
2022/08/04 08:13:18;;;;;;;0.67;0.67;;;41.20;50.40;;;;;;5034868;28;20514;-82
2022/08/04 08:15:46;;;;;;;0.40;0.30;;;42.00;48.30;;;;;;5035507;28;20469;-79
2022/08/04 08:18:13;;;;;;;0.40;0.30;;;41.20;48.30;;;;;;5035331;28;20465;-80
2022/08/04 08:20:45;;;;;;;0.43;0.30;;;41.00;50.10;;;;;;5036391;28;20544;-80
2022/08/04 08:23:12;;;;;;;0.50;0.30;;;41.60;48.00;;;;;;5035340;28;20438;-79
2022/08/04 08:25:39;;;;;;;0.70;0.63;;;41.50;47.40;;;;;;5035663;28;20528;-79
2022/08/04 08:28:07;;;;;;;0.40;0.30;;;41.70;47.10;;;;;;5035862;28;20542;-80
2022/08/04 08:30:34;;;;;;;0.40;0.30;;;41.30;48.10;;;;;;5034553;28;20434;-79
2022/08/04 08:33:04;;;;;;;0.43;0.37;;;42.60;48.00;;;;;;5034768;28;20528;-80
2022/08/04 08:35:37;;;;;;;0.50;0.30;;;43.90;46.80;;;;;;5035162;28;20497;-79
2022/08/04 08:38:08;;;;;;;0.40;0.30;;;45.00;44.80;;;;;;5035203;28;20458;-82
2022/08/04 08:40:45;;;;;;;0.40;0.30;;;45.70;43.60;;;;;;5035773;28;20457;-79
2022/08/04 08:43:25;;;;;;;0.40;0.30;;;45.90;43.50;;;;;;5033628;28;20469;-79
2022/08/04 08:46:26;;;;;;;0.50;0.50;;;45.10;43.60;;;;;;5102639;22;20917;-75
2022/08/04 08:49:10;;;;;;;0.40;0.30;;;45.20;43.50;;;;;;5083848;28;20514;-76
2022/08/04 08:51:49;;;;;;;0.40;0.40;;;44.30;44.60;;;;;;5090519;28;20435;-76
2022/08/04 08:54:45;;;;;;;0.40;0.30;;;44.20;44.00;;;;;;5091030;28;20565;-76
2022/08/04 08:57:30;;;;;;;0.40;0.30;;;44.00;44.20;;;;;;5091088;28;20543;-75
2022/08/04 09:00:09;;;;;;;5.07;0.70;;;44.10;44.20;;;;;;5091057;28;20478;-75
2022/08/04 09:03:07;;;;;;;0.40;0.40;;;43.50;44.10;;;;;;5090341;28;20506;-75
2022/08/04 09:05:56;;;;;;;0.90;0.63;;;43.00;45.20;;;;;;5090556;28;20542;-76
2022/08/04 09:08:40;;;;;;;0.40;0.30;;;43.00;45.60;;;;;;5090515;28;20614;-76
2022/08/04 09:11:13;;;;;;;0.50;0.40;;;43.50;45.40;;;;;;5090652;28;20510;-75
2022/08/04 09:13:44;;;;;;;0.40;0.40;;;42.90;44.70;;;;;;5090679;28;20419;-75
2022/08/04 09:16:17;;;;;;;0.47;0.33;;;42.30;45.90;;;;;;5090508;28;20504;-75
2022/08/04 09:18:50;;;;;;;0.50;0.40;;;42.00;46.70;;;;;;5090947;28;20438;-75
2022/08/04 09:21:23;;;;;;;0.60;0.60;;;41.80;46.10;;;;;;5090577;28;20502;-74
2022/08/04 09:24:00;;;;;;;0.40;0.30;;;41.10;46.70;;;;;;5090802;28;20514;-76
2022/08/04 09:26:35;;;;;;;0.40;0.40;;;41.20;47.50;;;;;;5090614;28;20449;-76
2022/08/04 09:29:10;;;;;;;1.43;0.60;;;40.20;47.40;;;;;;5090789;28;20458;-76
2022/08/04 09:31:46;;;;;;;0.50;0.40;;;39.10;48.40;;;;;;5090420;28;20463;-76
2022/08/04 09:34:23;;;;;;;0.50;0.30;;;38.20;49.80;;;;;;5090992;28;20888;-76
2022/08/04 09:37:00;;;;;;;0.50;0.30;;;37.30;50.50;;;;;;5090645;28;20501;-76
2022/08/04 09:39:34;;;;;;;0.50;0.40;;;36.60;52.50;;;;;;5090628;28;20920;-76
2022/08/04 09:42:14;;;;;;;0.50;0.30;;;35.80;53.20;;;;;;5089906;28;20453;-76
2022/08/04 09:44:52;;;;;;;0.50;0.30;;;35.30;54.40;;;;;;5091050;28;20554;-76
2022/08/04 09:47:26;;;;;;;0.70;0.70;;;35.00;55.60;;;;;;5094218;28;20431;-76
2022/08/04 09:49:58;;;;;;;1.57;1.33;;;34.70;56.30;;;;;;5094757;28;20439;-76
2022/08/04 09:52:31;;;;;;;0.50;0.30;;;34.80;56.80;;;;;;5093504;28;20518;-76
2022/08/04 09:55:05;;;;;;;0.50;0.30;;;35.40;56.90;;;;;;5094471;28;21048;-76
2022/08/04 09:57:45;;;;;;;0.50;0.30;;;35.50;56.00;;;;;;5094468;28;20434;-76
2022/08/04 10:00:15;;;;;;;0.50;0.30;;;35.40;55.80;;;;;;5094691;28;20502;-76
2022/08/04 10:02:46;;;;;;;1.00;0.90;;;36.20;56.00;;;;;;5093456;28;20813;-76
2022/08/04 10:05:16;;;;;;;0.50;0.50;;;37.20;53.50;;;;;;5094557;28;20542;-76
2022/08/04 10:07:55;;;;;;;0.50;0.30;;;36.70;52.50;;;;;;5093904;28;20529;-76
2022/08/04 10:10:33;;;;;;;0.50;0.30;;;36.80;53.80;;;;;;5094537;28;20430;-77
2022/08/04 10:13:23;;;;;;;0.50;0.40;;;38.60;53.50;;;;;;5094962;28;20443;-78
2022/08/04 10:16:05;;;;;;;0.47;0.30;;;39.40;50.60;;;;;;5094143;28;20502;-79
2022/08/04 10:18:45;;;;;;;0.40;0.30;;;40.00;50.10;;;;;;5095516;28;20497;-78
2022/08/04 10:21:23;;;;;;;0.93;0.93;;;39.80;50.00;;;;;;5094449;28;20538;-77
2022/08/04 10:24:10;;;;;;;0.70;0.60;;;39.70;49.80;;;;;;5093711;28;20889;-77
2022/08/04 10:26:48;;;;;;;0.50;0.50;;;38.80;49.90;;;;;;5094359;28;20550;-76
2022/08/04 10:29:22;;;;;;;0.43;0.40;;;38.70;50.60;;;;;;5093829;28;20439;-76
2022/08/04 10:31:57;;;;;;;0.43;0.30;;;38.50;51.30;;;;;;5093550;28;20508;-76
2022/08/04 10:34:29;;;;;;;1.53;0.50;;;38.70;50.90;;;;;;5093618;28;20565;-76
2022/08/04 10:37:02;;;;;;;0.50;0.30;;;38.40;50.50;;;;;;5093966;28;20416;-73
2022/08/04 10:39:39;;;;;;;0.70;0.43;;;38.70;50.50;;;;;;5094029;28;20518;-76
2022/08/04 10:42:15;;;;;;;1.47;1.17;;;38.80;50.40;;;;;;5093618;28;20419;-76
2022/08/04 10:44:55;;;;;;;0.50;0.30;;;38.80;50.70;;;;;;5093324;28;20996;-75
2022/08/04 10:47:27;;;;;;;0.40;0.30;;;39.00;51.30;;;;;;5093256;28;20512;-77
2022/08/04 10:49:59;;;;;;;0.40;0.40;;;38.70;51.80;;;;;;5093578;28;20500;-77
2022/08/04 10:52:34;;;;;;;1.03;1.03;;;38.60;52.10;;;;;;5093237;28;20459;-77
2022/08/04 10:55:08;;;;;;;2.30;2.10;;;38.30;52.70;;;;;;5093176;28;21003;-78
2022/08/04 10:57:39;;;;;;;0.50;0.30;;;37.60;53.20;;;;;;5092438;28;21018;-77
2022/08/04 11:00:11;;;;;;;0.47;0.30;;;37.30;53.60;;;;;;5093510;28;20454;-77
2022/08/04 11:02:45;;;;;;;0.40;0.30;;;37.50;55.40;;;;;;5092647;28;20510;-77
2022/08/04 11:05:21;;;;;;;0.43;0.30;;;38.20;55.60;;;;;;5093292;28;20459;-77
2022/08/04 11:07:52;;;;;;;0.40;0.30;;;39.40;53.90;;;;;;5093116;28;20454;-77
2022/08/04 11:10:21;;;;;;;0.40;0.30;;;40.10;51.70;;;;;;5092900;28;20522;-78
2022/08/04 11:12:54;;;;;;;0.40;0.30;;;40.30;50.90;;;;;;5092984;28;20508;-77
2022/08/04 11:15:30;;;;;;;0.40;0.30;;;40.20;49.70;;;;;;5092780;28;20498;-77
2022/08/04 11:18:02;;;;;;;0.40;0.30;;;39.50;50.80;;;;;;5093560;28;20509;-76
2022/08/04 11:20:35;;;;;;;1.00;0.90;;;39.80;51.20;;;;;;5092544;28;20522;-77
2022/08/04 11:23:06;;;;;;;0.40;0.30;;;40.10;50.80;;;;;;5092765;28;20526;-77
2022/08/04 11:25:40;;;;;;;0.40;0.40;;;39.80;50.80;;;;;;5092841;28;21053;-77
2022/08/04 11:28:14;;;;;;;0.40;0.30;;;39.00;50.40;;;;;;5092835;28;20839;-77
2022/08/04 11:30:50;;;;;;;0.40;0.30;;;38.50;51.40;;;;;;5092911;28;20534;-76
2022/08/04 11:33:27;;;;;;;0.50;0.30;;;38.00;50.70;;;;;;5092371;28;20526;-76
2022/08/04 11:36:01;;;;;;;0.43;0.30;;;37.20;51.80;;;;;;5092430;28;21184;-74
2022/08/04 11:38:36;;;;;;;0.50;0.40;;;36.80;53.70;;;;;;5093362;28;20510;-76
2022/08/04 11:41:16;;;;;;;0.50;0.40;;;36.50;53.80;;;;;;5092873;28;20423;-74
2022/08/04 11:43:48;;;;;;;0.50;0.30;;;36.10;54.20;;;;;;5092676;28;20478;-77
2022/08/04 11:46:24;;;;;;;0.50;0.30;;;35.70;54.90;;;;;;5092434;28;20542;-76
2022/08/04 11:49:00;;;;;;;0.60;0.40;;;35.30;56.20;;;;;;5091948;28;20931;-77
2022/08/04 11:51:28;;;;;;;0.70;0.53;;;35.00;56.80;;;;;;5091995;28;20443;-76
2022/08/04 11:53:56;;;;;;;0.50;0.30;;;34.80;57.40;;;;;;5092626;28;20444;-75
2022/08/04 11:56:23;;;;;;;0.50;0.30;;;34.50;58.20;;;;;;5092705;28;20485;-75
2022/08/04 11:58:50;;;;;;;0.50;0.30;;;34.60;59.30;;;;;;5092883;28;20633;-76
2022/08/04 12:01:34;;;;;;;0.60;0.40;;;34.90;60.90;;;;;;5092061;28;20489;-75
2022/08/04 12:04:07;;;;;;;0.50;0.30;;;35.10;58.60;;;;;;5092002;28;20897;-76
2022/08/04 12:06:44;;;;;;;0.50;0.40;;;35.30;58.20;;;;;;5092512;28;20522;-77
2022/08/04 12:09:21;;;;;;;0.70;0.50;;;35.20;56.90;;;;;;5092230;28;20428;-77
2022/08/04 12:11:55;;;;;;;0.50;0.30;;;34.90;56.70;;;;;;5091899;28;20418;-77
2022/08/04 12:14:32;;;;;;;1.47;1.13;;;34.60;57.80;;;;;;5092229;28;20549;-76
2022/08/04 12:17:02;;;;;;;0.73;0.73;;;34.20;57.70;;;;;;5092678;28;20411;-76
2022/08/04 12:19:34;;;;;;;0.50;0.30;;;33.80;57.40;;;;;;5092425;28;20462;-76
2022/08/04 12:22:05;;;;;;;0.50;0.30;;;33.30;58.40;;;;;;5092184;28;20990;-76
2022/08/04 12:24:37;;;;;;;0.50;0.30;;;33.00;59.60;;;;;;5091579;28;20447;-76
2022/08/04 12:27:16;;;;;;;0.50;0.30;;;32.90;61.90;;;;;;5092202;28;20440;-76
2022/08/04 12:29:46;;;;;;;0.50;0.40;;;32.70;62.20;;;;;;5092145;28;20494;-76
2022/08/04 12:32:25;;;;;;;0.50;0.30;;;32.50;63.10;;;;;;5091190;28;20439;-75
2022/08/04 12:35:07;;;;;;;0.60;0.60;;;32.30;63.60;;;;;;5091669;28;20562;-76
2022/08/04 12:37:43;;;;;;;0.50;0.40;;;32.30;64.00;;;;;;5092282;28;20871;-75
2022/08/04 12:40:16;;;;;;;0.50;0.33;;;32.00;68.40;;;;;;5091592;28;20416;-76
2022/08/04 12:42:52;;;;;;;1.10;0.50;;;32.70;70.50;;;;;;5091597;28;20424;-76
2022/08/04 12:45:22;;;;;;;0.60;0.50;;;33.80;69.50;;;;;;5091925;28;20603;-77
2022/08/04 12:47:52;;;;;;;0.50;0.30;;;35.20;66.90;;;;;;5092073;28;20557;-76
2022/08/04 12:50:21;;;;;;;0.50;0.30;;;35.70;63.60;;;;;;5091652;28;20510;-76
2022/08/04 12:52:51;;;;;;;0.50;0.47;;;35.90;62.40;;;;;;5090818;28;20946;-77
2022/08/04 12:55:21;;;;;;;0.50;0.40;;;36.10;61.50;;;;;;5091349;28;20473;-77
2022/08/04 12:57:50;;;;;;;0.50;0.30;;;36.00;62.70;;;;;;5091496;28;20435;-77
2022/08/04 13:00:29;;;;;;;0.60;0.57;;;36.30;62.00;;;;;;5091982;28;20526;-78
2022/08/04 13:03:06;;;;;;;0.50;0.30;;;36.90;63.30;;;;;;5090822;28;20518;-77
2022/08/04 13:05:34;;;;;;;0.50;0.30;;;37.20;59.80;;;;;;5092268;28;20455;-76
2022/08/04 13:08:04;;;;;;;0.50;0.30;;;37.40;59.10;;;;;;5091486;28;20935;-75
2022/08/04 13:10:36;;;;;;;0.40;0.30;;;37.40;59.40;;;;;;5091908;28;20434;-77
2022/08/04 13:13:04;;;;;;;0.43;0.30;;;37.30;58.80;;;;;;5092511;28;20845;-77
2022/08/04 13:15:32;;;;;;;0.50;0.30;;;37.10;59.20;;;;;;5090468;28;20577;-77
2022/08/04 13:18:05;;;;;;;0.40;0.30;;;37.00;61.10;;;;;;5091465;28;20442;-73
2022/08/04 13:20:34;;;;;;;0.40;0.30;;;37.50;60.80;;;;;;5092981;28;20470;-77
2022/08/04 13:23:06;;;;;;;1.60;1.50;;;38.00;58.80;;;;;;5095085;28;20514;-76
2022/08/04 13:25:34;;;;;;;0.40;0.30;;;38.10;58.80;;;;;;5094909;28;20455;-74
2022/08/04 13:28:02;;;;;;;0.40;0.30;;;37.40;58.60;;;;;;5095392;28;20443;-77
2022/08/04 13:30:33;;;;;;;0.50;0.50;;;37.60;59.50;;;;;;5095258;28;20529;-77
2022/08/04 13:33:03;;;;;;;0.50;0.30;;;37.20;58.40;;;;;;5094666;28;20463;-77
2022/08/04 13:35:33;;;;;;;0.50;0.30;;;36.70;59.30;;;;;;5094832;28;20593;-77